createdAt,value
2018-09-29T00:00:19.892Z,31.00
2018-09-29T00:02:23.581Z,30.90
2018-09-29T00:04:27.350Z,31.00
2018-09-29T00:06:31.042Z,29.80
2018-09-29T00:08:34.959Z,30.50
2018-09-29T00:10:38.658Z,29.80
2018-09-29T00:12:42.444Z,29.50
2018-09-29T00:14:46.112Z,29.60
2018-09-29T00:16:50.004Z,29.60
2018-09-29T00:18:53.752Z,29.90
2018-09-29T00:20:57.522Z,29.80
2018-09-29T00:23:01.464Z,29.20
2018-09-29T00:25:05.388Z,29.70
2018-09-29T00:27:09.021Z,29.50
2018-09-29T00:29:12.899Z,29.60
2018-09-29T00:31:16.546Z,31.20
2018-09-29T00:33:20.216Z,31.40
2018-09-29T00:35:23.904Z,31.00
2018-09-29T00:37:27.578Z,31.50
2018-09-29T00:39:31.215Z,31.70
2018-09-29T00:41:34.972Z,31.30
2018-09-29T00:43:38.729Z,32.10
2018-09-29T00:45:42.389Z,32.10
2018-09-29T00:47:46.188Z,32.20
2018-09-29T00:49:49.898Z,31.60
2018-09-29T00:51:53.685Z,31.90
2018-09-29T00:53:57.415Z,31.80
2018-09-29T00:56:01.226Z,32.00
2018-09-29T00:58:05.014Z,32.40
2018-09-29T01:00:08.804Z,32.90
2018-09-29T01:02:12.573Z,31.70
2018-09-29T01:04:16.409Z,33.00
2018-09-29T01:06:20.077Z,33.80
2018-09-29T01:08:23.796Z,32.90
2018-09-29T01:10:27.516Z,33.60
2018-09-29T01:12:31.239Z,32.50
2018-09-29T01:14:34.896Z,33.70
2018-09-29T01:16:38.662Z,32.40
2018-09-29T01:18:42.443Z,33.80
2018-09-29T01:20:46.343Z,33.90
2018-09-29T01:22:49.979Z,34.00
2018-09-29T01:24:53.908Z,34.00
2018-09-29T01:26:57.531Z,33.70
2018-09-29T01:29:01.310Z,34.00
2018-09-29T01:31:05.437Z,34.70
2018-09-29T01:33:09.120Z,33.80
2018-09-29T01:35:12.887Z,34.00
2018-09-29T01:37:16.534Z,33.70
2018-09-29T01:39:20.231Z,34.10
2018-09-29T01:41:23.919Z,34.80
2018-09-29T01:43:27.718Z,34.30
2018-09-29T01:45:31.427Z,34.20
2018-09-29T01:47:35.168Z,34.50
2018-09-29T01:49:38.951Z,34.20
2018-09-29T01:51:43.706Z,34.50
2018-09-29T01:53:47.442Z,34.40
2018-09-29T01:55:51.185Z,34.10
2018-09-29T01:57:54.942Z,34.30
2018-09-29T01:59:58.611Z,35.00
2018-09-29T02:02:02.400Z,35.50
2018-09-29T02:04:06.079Z,35.70
2018-09-29T02:06:09.886Z,33.90
2018-09-29T02:08:13.590Z,33.90
2018-09-29T02:10:17.434Z,33.80
2018-09-29T02:12:21.236Z,33.40
2018-09-29T02:14:25.001Z,34.40
2018-09-29T02:16:28.762Z,33.50
2018-09-29T02:18:32.560Z,33.10
2018-09-29T02:20:36.419Z,32.90
2018-09-29T02:22:40.103Z,32.70
2018-09-29T02:24:43.887Z,33.20
2018-09-29T02:26:47.513Z,32.80
2018-09-29T02:28:51.287Z,33.30
2018-09-29T02:30:55.139Z,33.20
2018-09-29T02:32:58.796Z,33.00
2018-09-29T02:35:02.514Z,32.80
2018-09-29T02:37:06.221Z,33.10
2018-09-29T02:39:11.581Z,33.60
2018-09-29T02:41:15.319Z,33.10
2018-09-29T02:43:18.988Z,33.20
2018-09-29T02:45:22.852Z,32.60
2018-09-29T02:47:26.496Z,33.40
2018-09-29T02:49:30.181Z,34.00
2018-09-29T02:51:33.991Z,33.80
2018-09-29T02:53:37.713Z,33.90
2018-09-29T02:55:41.412Z,33.90
2018-09-29T02:57:45.130Z,34.00
2018-09-29T02:59:48.852Z,33.90
2018-09-29T03:01:52.528Z,34.10
2018-09-29T03:03:56.184Z,34.20
2018-09-29T03:05:59.917Z,34.60
2018-09-29T03:08:03.675Z,34.80
2018-09-29T03:10:07.364Z,34.70
2018-09-29T03:12:11.114Z,34.90
2018-09-29T03:14:14.854Z,34.90
2018-09-29T03:16:18.480Z,35.40
2018-09-29T03:18:22.140Z,35.90
2018-09-29T03:20:25.944Z,35.90
2018-09-29T03:22:29.858Z,36.00
2018-09-29T03:24:33.636Z,36.00
2018-09-29T03:26:37.255Z,35.20
2018-09-29T03:28:41.074Z,35.60
2018-09-29T03:30:44.783Z,36.00
2018-09-29T03:32:48.523Z,36.40
2018-09-29T03:34:52.183Z,36.10
2018-09-29T03:36:55.830Z,36.50
2018-09-29T03:39:00.559Z,36.30
2018-09-29T03:41:04.229Z,36.50
2018-09-29T03:43:07.978Z,35.50
2018-09-29T03:45:11.675Z,36.20
2018-09-29T03:47:16.255Z,36.30
2018-09-29T03:49:19.876Z,36.00
2018-09-29T03:51:23.750Z,35.60
2018-09-29T03:53:27.394Z,36.20
2018-09-29T03:55:31.132Z,36.00
2018-09-29T03:57:36.375Z,36.40
2018-09-29T03:59:40.044Z,36.20
2018-09-29T04:01:43.718Z,36.50
2018-09-29T04:03:47.416Z,36.50
2018-09-29T04:05:51.261Z,36.70
2018-09-29T04:07:54.924Z,37.10
2018-09-29T04:10:01.618Z,35.70
2018-09-29T04:12:10.764Z,35.50
2018-09-29T04:14:15.244Z,37.40
2018-09-29T04:16:20.042Z,37.70
2018-09-29T04:18:25.202Z,36.90
2018-09-29T04:20:33.032Z,37.20
2018-09-29T04:22:40.590Z,38.20
2018-09-29T04:24:45.241Z,38.90
2018-09-29T04:26:50.659Z,38.60
2018-09-29T04:28:55.150Z,38.60
2018-09-29T04:31:02.501Z,39.30
2018-09-29T04:33:06.708Z,40.10
2018-09-29T04:35:14.597Z,39.10
2018-09-29T04:37:18.604Z,39.70
2018-09-29T04:39:23.684Z,40.40
2018-09-29T04:41:27.463Z,41.00
2018-09-29T04:43:31.154Z,40.50
2018-09-29T04:45:34.995Z,41.00
2018-09-29T04:47:38.720Z,40.20
2018-09-29T04:49:42.510Z,40.50
2018-09-29T04:51:46.162Z,40.30
2018-09-29T04:53:49.869Z,40.30
2018-09-29T04:55:53.593Z,40.30
2018-09-29T04:57:57.305Z,40.50
2018-09-29T05:00:01.136Z,41.00
2018-09-29T05:02:05.995Z,41.10
2018-09-29T05:04:09.712Z,41.00
2018-09-29T05:06:13.562Z,40.40
2018-09-29T05:08:17.303Z,40.30
2018-09-29T05:10:22.040Z,40.90
2018-09-29T05:12:25.677Z,41.50
2018-09-29T05:14:29.380Z,41.50
2018-09-29T05:16:33.039Z,40.90
2018-09-29T05:18:36.912Z,41.10
2018-09-29T05:20:40.566Z,42.10
2018-09-29T05:22:44.455Z,41.50
2018-09-29T05:24:48.084Z,41.10
2018-09-29T05:26:51.876Z,41.90
2018-09-29T05:28:55.585Z,42.80
2018-09-29T05:30:59.478Z,42.80
2018-09-29T05:33:03.069Z,43.00
2018-09-29T05:35:06.977Z,43.40
2018-09-29T05:37:10.656Z,43.80
2018-09-29T05:39:14.395Z,43.60
2018-09-29T05:41:18.136Z,43.90
2018-09-29T05:43:21.792Z,43.90
2018-09-29T05:45:25.561Z,43.80
2018-09-29T05:47:29.211Z,43.90
2018-09-29T05:49:32.890Z,43.90
2018-09-29T05:51:36.611Z,44.10
2018-09-29T05:53:40.529Z,44.60
2018-09-29T05:55:44.360Z,44.10
2018-09-29T05:57:48.238Z,44.00
2018-09-29T05:59:51.943Z,44.10
2018-09-29T06:02:02.234Z,43.70
2018-09-29T06:04:15.601Z,43.70
2018-09-29T06:06:20.352Z,43.90
2018-09-29T06:08:23.908Z,44.50
2018-09-29T06:10:27.614Z,45.30
2018-09-29T06:12:31.522Z,45.30
2018-09-29T06:14:35.233Z,45.30
2018-09-29T06:16:39.094Z,46.20
2018-09-29T06:18:43.070Z,45.80
2018-09-29T06:20:47.110Z,45.70
2018-09-29T06:22:51.120Z,45.90
2018-09-29T06:24:54.806Z,45.80
2018-09-29T06:26:59.716Z,45.70
2018-09-29T06:29:03.394Z,44.80
2018-09-29T06:31:07.923Z,44.10
2018-09-29T06:33:11.542Z,44.20
2018-09-29T06:35:16.285Z,44.80
2018-09-29T06:37:20.316Z,41.70
2018-09-29T06:39:24.153Z,39.20
2018-09-29T06:41:27.958Z,38.90
2018-09-29T06:43:31.606Z,37.20
2018-09-29T06:45:35.227Z,37.10
2018-09-29T06:47:38.850Z,37.30
2018-09-29T06:49:43.372Z,36.20
2018-09-29T06:51:47.556Z,36.90
2018-09-29T06:53:51.734Z,35.40
2018-09-29T06:55:55.715Z,32.90
2018-09-29T06:57:59.679Z,32.80
2018-09-29T07:00:03.493Z,32.70
2018-09-29T07:02:07.829Z,32.70
2018-09-29T07:04:12.469Z,32.60
2018-09-29T07:06:16.573Z,32.50
2018-09-29T07:08:21.558Z,32.40
2018-09-29T07:10:27.946Z,29.20
2018-09-29T07:12:31.626Z,30.30
2018-09-29T07:14:35.564Z,27.80
2018-09-29T07:16:39.825Z,27.80
2018-09-29T07:18:43.494Z,27.20
2018-09-29T07:20:47.772Z,27.20
2018-09-29T07:22:51.681Z,28.80
2018-09-29T07:24:55.284Z,24.80
2018-09-29T07:26:59.491Z,24.40
2018-09-29T07:29:03.305Z,23.00
2018-09-29T07:31:07.559Z,23.10
2018-09-29T07:33:11.464Z,21.80
2018-09-29T07:35:15.328Z,21.60
2018-09-29T07:37:18.994Z,21.00
2018-09-29T07:39:22.710Z,21.00
2018-09-29T07:41:26.446Z,21.10
2018-09-29T07:43:30.180Z,21.00
2018-09-29T07:45:33.967Z,21.10
2018-09-29T07:47:38.365Z,19.90
2018-09-29T07:49:42.055Z,19.70
2018-09-29T07:51:46.497Z,20.20
2018-09-29T07:53:50.134Z,20.10
2018-09-29T07:55:53.999Z,18.30
2018-09-29T07:57:57.818Z,17.60
2018-09-29T08:00:01.491Z,16.80
2018-09-29T08:02:05.780Z,16.20
2018-09-29T08:04:09.478Z,17.60
2018-09-29T08:06:13.219Z,14.80
2018-09-29T08:08:17.017Z,15.00
2018-09-29T08:10:20.718Z,14.60
2018-09-29T08:12:26.061Z,14.30
2018-09-29T08:14:30.034Z,14.30
2018-09-29T08:16:33.702Z,14.10
2018-09-29T08:18:37.846Z,13.40
2018-09-29T08:20:41.525Z,13.40
2018-09-29T08:22:45.569Z,12.30
2018-09-29T08:24:49.418Z,11.40
2018-09-29T08:26:53.187Z,11.90
2018-09-29T08:28:56.958Z,12.20
2018-09-29T08:31:01.117Z,9.70
2018-09-29T08:33:05.515Z,8.80
2018-09-29T08:35:09.219Z,6.40
2018-09-29T08:37:13.066Z,7.70
2018-09-29T08:41:24.813Z,7.30
2018-09-29T08:43:28.605Z,7.50
2018-09-29T08:45:32.451Z,8.90
2018-09-29T08:47:36.233Z,7.80
2018-09-29T08:49:40.071Z,4.10
2018-09-29T08:51:44.054Z,3.80
2018-09-29T08:53:48.338Z,3.10
2018-09-29T08:55:51.993Z,4.00
2018-09-29T08:57:55.763Z,1.80
2018-09-29T09:00:00.675Z,2.60
2018-09-29T09:02:04.481Z,3.20
2018-09-29T09:04:08.510Z,2.60
2018-09-29T09:06:12.146Z,1.00
2018-09-29T09:08:15.891Z,1.00
2018-09-29T09:10:19.556Z,1.00
2018-09-29T09:12:23.358Z,1.00
2018-09-29T09:14:27.631Z,1.00
2018-09-29T09:16:32.606Z,1.00
2018-09-29T09:18:36.435Z,1.00
2018-09-29T09:20:40.215Z,1.00
2018-09-29T09:22:44.126Z,1.00
2018-09-29T09:24:47.981Z,1.00
2018-09-29T09:26:51.979Z,1.00
2018-09-29T09:28:55.821Z,1.00
2018-09-29T09:30:59.523Z,1.00
2018-09-29T09:33:03.348Z,1.00
2018-09-29T09:35:07.127Z,1.00
2018-09-29T09:37:11.284Z,1.00
2018-09-29T09:39:15.543Z,1.00
2018-09-29T09:41:20.067Z,1.00
2018-09-29T09:43:24.605Z,1.00
2018-09-29T09:45:29.193Z,1.00
2018-09-29T09:47:32.863Z,1.00
2018-09-29T09:49:36.594Z,1.00
2018-09-29T09:51:40.021Z,1.00
2018-09-29T09:53:43.649Z,1.00
2018-09-29T09:55:47.396Z,1.00
2018-09-29T09:57:51.145Z,1.00
2018-09-29T09:59:54.795Z,1.00
2018-09-29T10:02:03.809Z,1.00
2018-09-29T10:04:07.966Z,1.00
2018-09-29T10:06:11.564Z,1.00
2018-09-29T10:08:15.302Z,1.00
2018-09-29T10:10:19.031Z,1.00
2018-09-29T10:12:22.877Z,1.00
2018-09-29T10:14:27.507Z,1.00
2018-09-29T10:16:31.629Z,1.00
2018-09-29T10:18:37.679Z,1.00
2018-09-29T10:20:41.667Z,1.00
2018-09-29T10:22:45.356Z,1.00
2018-09-29T10:24:49.261Z,1.00
2018-09-29T10:26:53.324Z,1.00
2018-09-29T10:28:58.043Z,1.00
2018-09-29T10:31:02.372Z,1.00
2018-09-29T10:33:06.143Z,1.00
2018-09-29T10:35:09.786Z,1.00
2018-09-29T10:37:13.449Z,1.00
2018-09-29T10:39:17.263Z,1.00
2018-09-29T10:41:21.032Z,1.00
2018-09-29T10:43:25.547Z,1.00
2018-09-29T10:45:30.895Z,1.00
2018-09-29T10:47:34.648Z,1.00
2018-09-29T10:49:38.373Z,1.00
2018-09-29T10:51:42.043Z,1.00
2018-09-29T10:53:46.417Z,1.00
2018-09-29T10:55:51.179Z,1.00
2018-09-29T10:57:55.171Z,1.00
2018-09-29T10:59:59.057Z,1.00
2018-09-29T11:02:02.711Z,1.00
2018-09-29T11:04:06.365Z,1.00
2018-09-29T11:06:09.927Z,1.00
2018-09-29T11:08:13.687Z,1.00
2018-09-29T11:10:17.353Z,1.00
2018-09-29T11:12:23.563Z,1.00
2018-09-29T11:14:27.359Z,1.00
2018-09-29T11:16:32.063Z,1.00
2018-09-29T11:18:36.168Z,1.00
2018-09-29T11:20:40.147Z,1.00
2018-09-29T11:22:43.870Z,1.00
2018-09-29T11:24:47.771Z,1.00
2018-09-29T11:26:52.899Z,1.00
2018-09-29T11:28:56.703Z,1.00
2018-09-29T11:31:00.490Z,1.00
2018-09-29T11:33:06.482Z,1.00
2018-09-29T11:35:12.380Z,1.00
2018-09-29T11:37:17.012Z,1.00
2018-09-29T11:39:20.718Z,1.00
2018-09-29T11:41:24.798Z,1.00
2018-09-29T11:43:28.407Z,1.00
2018-09-29T11:45:33.573Z,1.00
2018-09-29T11:47:37.176Z,1.00
2018-09-29T11:49:40.763Z,1.00
2018-09-29T11:51:44.413Z,1.00
2018-09-29T11:53:48.085Z,1.00
2018-09-29T11:55:51.755Z,1.00
2018-09-29T11:57:55.423Z,1.00
2018-09-29T11:59:59.142Z,1.00
2018-09-29T12:02:02.959Z,1.00
2018-09-29T12:04:06.693Z,1.00
2018-09-29T12:06:10.398Z,1.00
2018-09-29T12:08:18.389Z,1.00
2018-09-29T12:10:22.474Z,1.00
2018-09-29T12:12:26.558Z,1.00
2018-09-29T12:14:31.234Z,1.00
2018-09-29T12:16:35.088Z,1.00
2018-09-29T12:18:38.849Z,1.00
2018-09-29T12:20:43.582Z,1.00
2018-09-29T12:22:47.481Z,1.00
2018-09-29T12:24:51.572Z,1.00
2018-09-29T12:26:57.421Z,1.00
2018-09-29T12:29:01.700Z,1.00
2018-09-29T12:31:05.529Z,1.00
2018-09-29T12:33:09.376Z,1.00
2018-09-29T12:35:15.297Z,1.00
2018-09-29T12:37:19.169Z,1.00
2018-09-29T12:39:23.115Z,1.00
2018-09-29T12:41:27.044Z,1.00
2018-09-29T12:43:31.431Z,1.00
2018-09-29T12:45:35.584Z,1.00
2018-09-29T12:47:39.506Z,1.00
2018-09-29T12:49:43.527Z,1.00
2018-09-29T12:51:47.250Z,1.00
2018-09-29T12:53:50.962Z,1.00
2018-09-29T12:55:54.949Z,1.00
2018-09-29T12:57:58.544Z,1.00
2018-09-29T13:00:03.127Z,1.00
2018-09-29T13:02:07.229Z,1.00
2018-09-29T13:04:12.149Z,1.00
2018-09-29T13:06:16.018Z,1.00
2018-09-29T13:08:19.971Z,1.00
2018-09-29T13:10:23.721Z,1.00
2018-09-29T13:12:27.609Z,1.00
2018-09-29T13:14:32.058Z,1.00
2018-09-29T13:16:36.135Z,1.00
2018-09-29T13:18:40.185Z,1.00
2018-09-29T13:20:43.846Z,1.00
2018-09-29T13:22:47.543Z,1.00
2018-09-29T13:24:51.313Z,1.00
2018-09-29T13:26:55.013Z,1.00
2018-09-29T13:28:58.805Z,1.00
2018-09-29T13:31:02.439Z,1.00
2018-09-29T13:33:06.198Z,1.00
2018-09-29T13:35:10.029Z,1.00
2018-09-29T13:37:13.733Z,1.00
2018-09-29T13:39:17.364Z,1.00
2018-09-29T13:41:21.048Z,1.00
2018-09-29T13:43:24.713Z,1.00
2018-09-29T13:45:28.447Z,1.00
2018-09-29T13:47:32.161Z,1.00
2018-09-29T13:49:35.940Z,1.00
2018-09-29T13:51:39.905Z,1.00
2018-09-29T13:53:44.154Z,1.00
2018-09-29T13:55:47.749Z,1.00
2018-09-29T13:57:51.377Z,1.00
2018-09-29T13:59:54.952Z,1.00
2018-09-29T14:01:58.534Z,1.00
2018-09-29T14:04:02.253Z,1.00
2018-09-29T14:06:05.871Z,1.00
2018-09-29T14:08:09.640Z,1.00
2018-09-29T14:10:19.523Z,1.00
2018-09-29T14:12:23.938Z,1.00
2018-09-29T14:14:27.650Z,1.00
2018-09-29T14:16:31.891Z,1.00
2018-09-29T14:18:36.591Z,1.00
2018-09-29T14:20:40.426Z,1.00
2018-09-29T14:22:44.788Z,1.00
2018-09-29T14:24:49.299Z,1.00
2018-09-29T14:26:53.112Z,1.00
2018-09-29T14:28:56.761Z,1.00
2018-09-29T14:31:00.339Z,1.00
2018-09-29T14:33:04.081Z,1.00
2018-09-29T14:35:08.042Z,1.00
2018-09-29T14:37:11.830Z,1.00
2018-09-29T14:39:15.728Z,1.00
2018-09-29T14:41:19.445Z,1.00
2018-09-29T14:43:23.408Z,1.00
2018-09-29T14:45:27.047Z,1.00
2018-09-29T14:47:31.011Z,1.00
2018-09-29T14:49:34.966Z,1.00
2018-09-29T14:51:38.727Z,1.00
2018-09-29T14:53:43.936Z,1.00
2018-09-29T14:55:47.700Z,1.00
2018-09-29T14:57:51.552Z,1.00
2018-09-29T14:59:55.582Z,1.00
2018-09-29T15:02:00.097Z,1.00
2018-09-29T15:04:04.068Z,1.00
2018-09-29T15:06:08.965Z,1.00
2018-09-29T15:08:12.861Z,1.00
2018-09-29T15:10:19.916Z,1.00
2018-09-29T15:12:24.153Z,1.00
2018-09-29T15:14:27.952Z,1.00
2018-09-29T15:16:31.780Z,1.00
2018-09-29T15:18:35.788Z,1.00
2018-09-29T15:20:45.371Z,1.00
2018-09-29T15:22:49.313Z,1.00
2018-09-29T15:24:53.057Z,1.00
2018-09-29T15:26:56.917Z,1.00
2018-09-29T15:29:01.680Z,1.00
2018-09-29T15:31:05.346Z,1.00
2018-09-29T15:33:10.396Z,1.00
2018-09-29T15:35:14.601Z,1.00
2018-09-29T15:37:18.323Z,1.00
2018-09-29T15:39:22.562Z,1.00
2018-09-29T15:41:26.278Z,1.00
2018-09-29T15:43:30.224Z,1.00
2018-09-29T15:45:33.835Z,1.00
2018-09-29T15:47:37.498Z,1.00
2018-09-29T15:49:41.206Z,1.00
2018-09-29T15:51:44.976Z,1.00
2018-09-29T15:53:48.705Z,1.00
2018-09-29T15:55:52.344Z,1.00
2018-09-29T15:57:56.216Z,1.00
2018-09-29T16:00:00.014Z,1.00
2018-09-29T16:02:03.979Z,1.00
2018-09-29T16:04:08.321Z,1.00
2018-09-29T16:06:12.248Z,1.00
2018-09-29T16:08:16.170Z,1.00
2018-09-29T16:10:20.997Z,1.00
2018-09-29T16:12:25.026Z,1.00
2018-09-29T16:14:29.710Z,1.00
2018-09-29T16:16:33.731Z,1.00
2018-09-29T16:18:37.814Z,1.00
2018-09-29T16:20:41.644Z,1.00
2018-09-29T16:22:45.685Z,1.00
2018-09-29T16:24:49.609Z,1.00
2018-09-29T16:26:55.398Z,1.00
2018-09-29T16:28:59.169Z,1.00
2018-09-29T16:31:02.759Z,1.00
2018-09-29T16:33:06.576Z,1.00
2018-09-29T16:35:10.666Z,1.00
2018-09-29T16:37:14.534Z,1.00
2018-09-29T16:39:18.225Z,1.00
2018-09-29T16:41:22.218Z,1.00
2018-09-29T16:43:25.975Z,1.00
2018-09-29T16:45:29.667Z,1.00
2018-09-29T16:47:33.277Z,1.00
2018-09-29T16:49:36.977Z,1.00
2018-09-29T16:51:40.513Z,1.00
2018-09-29T16:53:44.247Z,1.00
2018-09-29T16:55:48.428Z,1.00
2018-09-29T16:57:52.226Z,1.00
2018-09-29T16:59:55.954Z,1.00
2018-09-29T17:01:59.652Z,1.00
2018-09-29T17:04:03.373Z,1.00
2018-09-29T17:06:11.723Z,1.00
2018-09-29T17:08:19.991Z,1.00
2018-09-29T17:10:27.933Z,1.00
2018-09-29T17:12:35.751Z,1.00
2018-09-29T17:14:44.405Z,1.00
2018-09-29T17:16:48.283Z,1.00
2018-09-29T17:18:52.368Z,1.00
2018-09-29T17:20:56.249Z,1.00
2018-09-29T17:23:00.025Z,1.00
2018-09-29T17:25:03.787Z,1.00
2018-09-29T17:27:07.606Z,1.00
2018-09-29T17:29:11.318Z,1.00
2018-09-29T17:31:15.288Z,1.00
2018-09-29T17:33:19.224Z,1.00
2018-09-29T17:35:22.917Z,1.00
2018-09-29T17:37:27.168Z,1.00
2018-09-29T17:39:31.129Z,1.00
2018-09-29T17:41:35.083Z,1.00
2018-09-29T17:43:39.576Z,1.00
2018-09-29T17:45:43.717Z,1.00
2018-09-29T17:47:47.647Z,1.00
2018-09-29T17:49:51.688Z,1.00
2018-09-29T17:51:55.555Z,1.00
2018-09-29T17:53:59.503Z,1.00
2018-09-29T17:56:03.353Z,1.00
2018-09-29T17:58:07.150Z,1.00
2018-09-29T18:00:10.988Z,1.00
2018-09-29T18:02:14.969Z,1.00
2018-09-29T18:04:19.002Z,1.00
2018-09-29T18:06:22.756Z,1.00
2018-09-29T18:08:26.570Z,1.00
2018-09-29T18:10:30.401Z,1.00
2018-09-29T18:12:34.142Z,1.00
2018-09-29T18:14:38.196Z,1.00
2018-09-29T18:16:41.870Z,1.00
2018-09-29T18:18:45.591Z,1.00
2018-09-29T18:20:49.258Z,1.00
2018-09-29T18:22:52.937Z,1.00
2018-09-29T18:24:56.604Z,1.00
2018-09-29T18:27:00.276Z,1.00
2018-09-29T18:29:04.234Z,1.00
2018-09-29T18:31:07.980Z,1.00
2018-09-29T18:33:11.982Z,1.00
2018-09-29T18:35:15.661Z,1.00
2018-09-29T18:37:19.434Z,1.00
2018-09-29T18:39:23.092Z,2.10
2018-09-29T18:41:26.868Z,2.70
2018-09-29T18:43:30.497Z,3.10
2018-09-29T18:45:34.933Z,3.30
2018-09-29T18:47:39.206Z,3.50
2018-09-29T18:49:42.992Z,2.90
2018-09-29T18:51:46.823Z,3.60
2018-09-29T18:53:50.481Z,4.00
2018-09-29T18:55:54.090Z,3.50
2018-09-29T18:57:57.817Z,4.80
2018-09-29T19:00:01.488Z,5.10
2018-09-29T19:02:05.362Z,5.40
2018-09-29T19:04:09.041Z,6.00
2018-09-29T19:06:12.847Z,5.70
2018-09-29T19:08:16.424Z,6.60
2018-09-29T19:10:20.182Z,5.60
2018-09-29T19:12:24.135Z,7.20
2018-09-29T19:14:28.171Z,7.20
2018-09-29T19:16:31.829Z,7.30
2018-09-29T19:18:35.579Z,7.30
2018-09-29T19:20:39.326Z,8.20
2018-09-29T19:22:43.255Z,8.30
2018-09-29T19:24:46.999Z,8.00
2018-09-29T19:26:50.825Z,8.10
2018-09-29T19:28:54.484Z,7.30
2018-09-29T19:30:58.202Z,8.10
2018-09-29T19:33:01.845Z,8.60
2018-09-29T19:35:05.632Z,8.10
2018-09-29T19:37:09.390Z,8.30
2018-09-29T19:39:13.619Z,8.70
2018-09-29T19:41:17.219Z,9.30
2018-09-29T19:43:20.833Z,8.60
2018-09-29T19:45:24.524Z,9.70
2018-09-29T19:47:28.206Z,10.80
2018-09-29T19:49:31.771Z,10.60
2018-09-29T19:51:36.011Z,11.00
2018-09-29T19:53:39.685Z,11.10
2018-09-29T19:55:43.279Z,10.80
2018-09-29T19:57:47.307Z,10.90
2018-09-29T19:59:51.150Z,11.00
2018-09-29T20:01:54.993Z,11.20
2018-09-29T20:03:58.660Z,11.00
2018-09-29T20:06:02.421Z,11.00
2018-09-29T20:08:06.245Z,12.20
2018-09-29T20:10:09.954Z,11.90
2018-09-29T20:12:13.642Z,11.90
2018-09-29T20:14:17.355Z,12.20
2018-09-29T20:16:21.367Z,12.70
2018-09-29T20:18:25.060Z,13.00
2018-09-29T20:20:29.078Z,13.30
2018-09-29T20:22:32.899Z,13.90
2018-09-29T20:24:36.605Z,14.20
2018-09-29T20:26:40.382Z,14.20
2018-09-29T20:28:44.096Z,14.30
2018-09-29T20:30:47.871Z,14.40
2018-09-29T20:32:51.555Z,15.00
2018-09-29T20:34:55.330Z,15.30
2018-09-29T20:36:59.132Z,15.00
2018-09-29T20:39:02.999Z,15.20
2018-09-29T20:41:06.690Z,15.40
2018-09-29T20:43:10.570Z,15.30
2018-09-29T20:45:14.358Z,15.50
2018-09-29T20:47:18.034Z,15.60
2018-09-29T20:49:21.772Z,15.60
2018-09-29T20:51:26.089Z,15.20
2018-09-29T20:53:29.831Z,15.40
2018-09-29T20:55:33.529Z,15.50
2018-09-29T20:57:37.240Z,15.40
2018-09-29T20:59:41.109Z,15.60
2018-09-29T21:01:44.757Z,16.00
2018-09-29T21:03:48.504Z,15.80
2018-09-29T21:05:52.115Z,16.10
2018-09-29T21:07:55.812Z,15.80
2018-09-29T21:09:59.602Z,15.80
2018-09-29T21:12:03.703Z,16.10
2018-09-29T21:14:07.361Z,16.40
2018-09-29T21:16:10.940Z,16.30
2018-09-29T21:18:14.648Z,16.70
2018-09-29T21:20:18.347Z,16.80
2018-09-29T21:22:21.996Z,17.20
2018-09-29T21:24:25.590Z,17.60
2018-09-29T21:26:29.523Z,18.40
2018-09-29T21:28:34.167Z,17.80
2018-09-29T21:30:37.742Z,18.00
2018-09-29T21:32:41.278Z,17.90
2018-09-29T21:34:44.859Z,18.20
2018-09-29T21:36:48.467Z,18.50
2018-09-29T21:38:52.108Z,18.10
2018-09-29T21:40:55.711Z,18.10
2018-09-29T21:42:59.286Z,18.80
2018-09-29T21:45:03.034Z,19.50
2018-09-29T21:47:07.044Z,19.60
2018-09-29T21:49:10.671Z,18.90
2018-09-29T21:51:14.349Z,19.60
2018-09-29T21:53:18.453Z,20.00
2018-09-29T21:55:22.189Z,20.20
2018-09-29T21:57:25.809Z,20.00
2018-09-29T21:59:29.497Z,20.30
2018-09-29T22:01:33.875Z,20.30
2018-09-29T22:03:37.573Z,20.40
2018-09-29T22:05:42.845Z,20.80
2018-09-29T22:07:47.235Z,21.10
2018-09-29T22:09:51.075Z,21.40
2018-09-29T22:11:54.685Z,21.50
2018-09-29T22:13:58.392Z,21.50
2018-09-29T22:16:02.104Z,22.30
2018-09-29T22:18:06.362Z,21.30
2018-09-29T22:20:10.473Z,22.90
2018-09-29T22:22:14.417Z,23.30
2018-09-29T22:24:18.464Z,23.00
2018-09-29T22:26:22.065Z,23.90
2018-09-29T22:28:25.830Z,23.90
2018-09-29T22:30:29.475Z,23.90
2018-09-29T22:32:33.407Z,23.90
2018-09-29T22:34:37.181Z,24.10
2018-09-29T22:36:40.815Z,23.90
2018-09-29T22:38:44.448Z,24.10
2018-09-29T22:40:48.327Z,24.30
2018-09-29T22:42:52.003Z,24.40
2018-09-29T22:44:55.895Z,24.10
2018-09-29T22:47:00.019Z,24.20
2018-09-29T22:49:04.096Z,23.90
2018-09-29T22:51:08.227Z,23.80
2018-09-29T22:53:11.861Z,24.20
2018-09-29T22:55:15.887Z,25.00
2018-09-29T22:57:19.585Z,25.50
2018-09-29T22:59:23.167Z,25.30
2018-09-29T23:01:27.134Z,25.40
2018-09-29T23:03:31.048Z,25.60
2018-09-29T23:05:34.663Z,25.50
2018-09-29T23:07:38.593Z,25.60
2018-09-29T23:09:42.250Z,24.50
2018-09-29T23:11:46.019Z,25.50
2018-09-29T23:13:49.685Z,25.40
2018-09-29T23:15:53.529Z,25.60
2018-09-29T23:17:57.218Z,26.10
2018-09-29T23:20:01.145Z,26.50
2018-09-29T23:22:04.813Z,26.90
2018-09-29T23:24:08.414Z,27.00
2018-09-29T23:26:12.491Z,27.10
2018-09-29T23:28:16.132Z,27.00
2018-09-29T23:30:19.792Z,27.40
2018-09-29T23:32:23.398Z,26.10
2018-09-29T23:34:27.226Z,27.10
2018-09-29T23:36:31.187Z,26.80
2018-09-29T23:38:37.885Z,27.10
2018-09-29T23:40:42.817Z,27.40
2018-09-29T23:42:47.177Z,27.30
2018-09-29T23:44:50.860Z,27.50
2018-09-29T23:46:54.912Z,28.10
2018-09-29T23:48:59.380Z,28.10
2018-09-29T23:51:03.013Z,28.60
2018-09-29T23:53:07.162Z,28.90
2018-09-29T23:55:10.939Z,29.40
2018-09-29T23:57:14.587Z,29.80
2018-09-29T23:59:18.215Z,29.00
